createdAt,value
2019-03-10T00:01:15.827Z,3.55
2019-03-10T00:03:45.528Z,3.49
2019-03-10T00:06:15.198Z,3.40
2019-03-10T00:08:44.815Z,3.33
2019-03-10T00:11:14.428Z,3.29
2019-03-10T00:13:44.074Z,3.29
2019-03-10T00:16:13.685Z,3.27
2019-03-10T00:18:43.304Z,3.29
2019-03-10T00:21:12.968Z,3.24
2019-03-10T00:23:43.340Z,3.21
2019-03-10T00:26:12.946Z,3.18
2019-03-10T00:28:42.632Z,3.15
2019-03-10T00:31:12.230Z,3.15
2019-03-10T00:33:42.005Z,3.18
2019-03-10T00:36:11.674Z,3.19
2019-03-10T00:38:47.069Z,3.20
2019-03-10T00:41:42.554Z,3.23
2019-03-10T00:44:15.230Z,3.24
2019-03-10T00:47:03.177Z,3.25
2019-03-10T00:50:09.297Z,3.26
2019-03-10T00:52:47.032Z,3.31
2019-03-10T00:55:17.628Z,3.33
2019-03-10T00:57:47.407Z,3.29
2019-03-10T01:00:18.734Z,3.30
2019-03-10T01:02:49.299Z,3.29
2019-03-10T01:05:18.908Z,3.29
2019-03-10T01:07:49.681Z,3.29
2019-03-10T01:10:19.285Z,3.36
2019-03-10T01:12:49.248Z,3.38
2019-03-10T01:15:18.880Z,3.36
2019-03-10T01:17:51.630Z,3.36
2019-03-10T01:20:21.306Z,3.37
2019-03-10T01:22:50.990Z,3.41
2019-03-10T01:25:20.599Z,3.42
2019-03-10T01:27:50.203Z,3.43
2019-03-10T01:30:20.719Z,3.46
2019-03-10T01:32:58.739Z,3.47
2019-03-10T01:35:29.642Z,3.49
2019-03-10T01:37:59.715Z,3.55
2019-03-10T01:40:29.320Z,3.56
2019-03-10T01:42:59.017Z,3.62
2019-03-10T01:45:28.626Z,3.65
2019-03-10T01:47:59.521Z,3.65
2019-03-10T01:50:29.226Z,3.67
2019-03-10T01:52:58.852Z,3.70
2019-03-10T01:55:29.228Z,3.73
2019-03-10T01:57:58.913Z,3.79
2019-03-10T02:00:28.522Z,3.82
2019-03-10T02:02:59.198Z,3.84
2019-03-10T02:05:29.391Z,3.89
2019-03-10T02:07:58.997Z,3.90
2019-03-10T02:10:28.600Z,3.92
2019-03-10T02:12:58.246Z,3.98
2019-03-10T02:15:27.855Z,4.01
2019-03-10T02:17:58.033Z,4.03
2019-03-10T02:20:27.767Z,4.06
2019-03-10T02:22:57.388Z,4.09
2019-03-10T02:25:27.923Z,4.14
2019-03-10T02:27:57.581Z,4.17
2019-03-10T02:30:27.267Z,4.28
2019-03-10T02:32:57.162Z,4.36
2019-03-10T02:35:28.470Z,4.38
2019-03-10T02:37:58.075Z,4.35
2019-03-10T02:40:27.687Z,4.32
2019-03-10T02:42:57.443Z,4.32
2019-03-10T02:45:27.221Z,4.34
2019-03-10T02:47:56.816Z,4.34
2019-03-10T02:50:26.472Z,4.35
2019-03-10T02:52:56.079Z,4.34
2019-03-10T02:55:26.676Z,4.36
2019-03-10T02:57:56.524Z,4.36
2019-03-10T03:00:26.130Z,4.49
2019-03-10T03:02:55.753Z,4.52
2019-03-10T03:05:33.217Z,4.47
2019-03-10T03:08:02.812Z,4.38
2019-03-10T03:10:32.437Z,4.28
2019-03-10T03:13:02.106Z,4.24
2019-03-10T03:15:31.709Z,4.16
2019-03-10T03:18:01.314Z,4.10
2019-03-10T03:20:32.021Z,4.03
2019-03-10T03:23:01.638Z,3.98
2019-03-10T03:25:31.249Z,3.93
2019-03-10T03:28:00.965Z,3.90
2019-03-10T03:30:31.486Z,3.87
2019-03-10T03:33:01.225Z,3.86
2019-03-10T03:35:50.994Z,3.84
2019-03-10T03:38:32.558Z,3.87
2019-03-10T03:41:14.035Z,3.90
2019-03-10T03:43:44.656Z,3.92
2019-03-10T03:46:15.039Z,3.93
2019-03-10T03:48:45.251Z,3.94
2019-03-10T03:51:14.858Z,3.96
2019-03-10T03:53:44.828Z,3.99
2019-03-10T03:56:15.281Z,4.02
2019-03-10T03:58:44.885Z,4.03
2019-03-10T04:01:19.186Z,4.04
2019-03-10T04:03:48.933Z,4.06
2019-03-10T04:06:20.279Z,4.10
2019-03-10T04:08:50.272Z,4.13
2019-03-10T04:11:19.951Z,4.15
2019-03-10T04:13:50.126Z,4.15
2019-03-10T04:16:21.661Z,4.16
2019-03-10T04:18:52.127Z,4.15
2019-03-10T04:21:22.297Z,4.12
2019-03-10T04:23:51.898Z,4.07
2019-03-10T04:26:21.638Z,4.03
2019-03-10T04:28:51.265Z,3.99
2019-03-10T04:31:21.257Z,3.92
2019-03-10T04:33:51.741Z,3.86
2019-03-10T04:36:23.321Z,3.80
2019-03-10T04:38:53.240Z,3.78
2019-03-10T04:41:23.431Z,3.73
2019-03-10T04:43:54.139Z,3.71
2019-03-10T04:46:23.735Z,3.69
2019-03-10T04:48:53.954Z,3.65
2019-03-10T04:51:24.595Z,3.61
2019-03-10T04:53:54.200Z,3.56
2019-03-10T04:56:25.511Z,3.54
2019-03-10T04:58:55.123Z,3.49
2019-03-10T05:01:24.727Z,3.51
2019-03-10T05:03:54.373Z,3.50
2019-03-10T05:06:24.300Z,3.45
2019-03-10T05:08:55.051Z,3.41
2019-03-10T05:11:25.052Z,3.39
2019-03-10T05:13:55.024Z,3.36
2019-03-10T05:16:24.980Z,3.34
2019-03-10T05:18:54.662Z,3.29
2019-03-10T05:21:24.275Z,3.25
2019-03-10T05:23:54.992Z,3.21
2019-03-10T05:26:24.627Z,3.21
2019-03-10T05:28:54.235Z,3.21
2019-03-10T05:31:23.843Z,3.24
2019-03-10T05:33:53.770Z,3.26
2019-03-10T05:36:26.095Z,3.25
2019-03-10T05:38:56.086Z,3.25
2019-03-10T05:41:26.478Z,3.25
2019-03-10T05:43:58.737Z,3.28
2019-03-10T05:46:28.515Z,3.28
2019-03-10T05:48:58.151Z,3.23
2019-03-10T05:51:27.757Z,3.28
2019-03-10T05:53:57.362Z,3.30
2019-03-10T05:56:27.124Z,3.29
2019-03-10T05:58:57.015Z,3.25
2019-03-10T06:01:26.630Z,3.25
2019-03-10T06:03:56.274Z,3.22
2019-03-10T06:06:25.883Z,3.27
2019-03-10T06:08:55.764Z,3.29
2019-03-10T06:11:26.290Z,3.31
2019-03-10T06:13:56.405Z,3.34
2019-03-10T06:16:28.318Z,3.40
2019-03-10T06:18:58.011Z,3.46
2019-03-10T06:21:27.618Z,3.43
2019-03-10T06:23:59.711Z,3.46
2019-03-10T06:26:30.579Z,3.45
2019-03-10T06:29:00.957Z,3.48
2019-03-10T06:31:30.733Z,3.48
2019-03-10T06:34:00.675Z,3.47
2019-03-10T06:36:30.279Z,3.45
2019-03-10T06:39:00.069Z,3.45
2019-03-10T06:41:31.178Z,3.46
2019-03-10T06:44:01.256Z,3.48
2019-03-10T06:46:31.172Z,3.51
2019-03-10T06:49:00.850Z,3.59
2019-03-10T06:51:30.461Z,3.63
2019-03-10T06:54:00.930Z,3.74
2019-03-10T06:56:30.693Z,3.82
2019-03-10T06:59:00.696Z,3.85
2019-03-10T07:01:31.797Z,3.92
2019-03-10T07:04:02.640Z,3.99
2019-03-10T07:06:32.421Z,4.05
2019-03-10T07:09:02.037Z,4.11
2019-03-10T07:11:31.695Z,4.17
2019-03-10T07:14:01.326Z,4.28
2019-03-10T07:16:33.265Z,4.38
2019-03-10T07:19:02.931Z,4.46
2019-03-10T07:21:32.542Z,4.55
2019-03-10T07:24:01.981Z,4.68
2019-03-10T07:26:33.506Z,4.74
2019-03-10T07:29:05.546Z,4.78
2019-03-10T07:31:48.616Z,4.86
2019-03-10T07:34:19.999Z,4.93
2019-03-10T07:36:57.183Z,4.96
2019-03-10T07:39:28.437Z,5.02
2019-03-10T07:42:02.920Z,5.08
2019-03-10T07:44:38.283Z,5.13
2019-03-10T07:47:12.018Z,5.18
2019-03-10T07:49:47.130Z,5.21
2019-03-10T07:52:20.479Z,5.19
2019-03-10T07:55:02.757Z,5.20
2019-03-10T07:57:43.243Z,5.19
2019-03-10T08:00:17.189Z,5.26
2019-03-10T08:02:48.445Z,5.37
2019-03-10T08:05:28.528Z,5.32
2019-03-10T08:07:59.778Z,5.37
2019-03-10T08:10:39.856Z,5.42
2019-03-10T08:13:17.251Z,5.52
2019-03-10T08:16:04.811Z,5.56
2019-03-10T08:18:45.122Z,5.44
2019-03-10T08:21:19.432Z,5.41
2019-03-10T08:24:05.978Z,5.28
2019-03-10T08:26:46.251Z,5.30
2019-03-10T08:29:20.281Z,5.28
2019-03-10T08:32:07.759Z,5.28
2019-03-10T08:34:55.694Z,5.36
2019-03-10T08:37:29.437Z,5.50
2019-03-10T08:40:09.895Z,5.63
2019-03-10T08:42:42.122Z,5.66
2019-03-10T08:45:22.655Z,5.70
2019-03-10T08:47:53.801Z,5.83
2019-03-10T08:50:35.095Z,6.01
2019-03-10T08:53:09.733Z,6.13
2019-03-10T08:55:45.524Z,6.18
2019-03-10T08:58:33.011Z,6.17
2019-03-10T09:01:04.267Z,6.25
2019-03-10T09:03:50.402Z,6.35
2019-03-10T09:06:33.689Z,6.35
2019-03-10T09:09:07.434Z,6.38
2019-03-10T09:11:52.087Z,6.31
2019-03-10T09:14:27.105Z,6.27
2019-03-10T09:17:00.999Z,6.25
2019-03-10T09:19:41.233Z,6.30
2019-03-10T09:22:18.384Z,6.19
2019-03-10T09:24:49.672Z,6.15
2019-03-10T09:27:37.518Z,6.28
2019-03-10T09:30:11.747Z,6.42
2019-03-10T09:32:45.877Z,6.38
2019-03-10T09:35:21.543Z,6.43
2019-03-10T09:37:59.167Z,6.66
2019-03-10T09:40:36.307Z,6.71
2019-03-10T09:43:20.693Z,6.79
2019-03-10T09:45:58.584Z,6.76
2019-03-10T09:48:45.827Z,6.67
2019-03-10T09:51:23.479Z,6.77
2019-03-10T09:54:03.290Z,6.86
2019-03-10T09:56:40.811Z,6.92
2019-03-10T09:59:14.761Z,6.91
2019-03-10T10:01:47.005Z,6.70
2019-03-10T10:04:28.798Z,6.62
2019-03-10T10:07:00.369Z,6.64
2019-03-10T10:09:32.384Z,6.61
2019-03-10T10:12:12.911Z,6.63
2019-03-10T10:14:42.799Z,6.65
2019-03-10T10:17:20.001Z,6.58
2019-03-10T10:20:06.071Z,6.54
2019-03-10T10:22:52.278Z,6.53
2019-03-10T10:25:36.094Z,6.52
2019-03-10T10:28:07.768Z,6.63
2019-03-10T10:30:49.585Z,6.76
2019-03-10T10:33:22.017Z,6.78
2019-03-10T10:36:03.515Z,6.93
2019-03-10T10:38:34.889Z,6.91
2019-03-10T10:41:11.919Z,6.93
2019-03-10T10:43:45.892Z,6.91
2019-03-10T10:46:19.933Z,6.92
2019-03-10T10:48:54.499Z,6.88
2019-03-10T10:51:43.520Z,6.95
2019-03-10T10:54:15.018Z,6.88
2019-03-10T10:56:52.180Z,6.98
2019-03-10T10:59:33.928Z,7.01
2019-03-10T11:02:11.333Z,7.05
2019-03-10T11:04:59.026Z,7.11
2019-03-10T11:07:30.296Z,7.38
2019-03-10T11:10:17.510Z,7.56
2019-03-10T11:12:57.978Z,7.68
2019-03-10T11:15:35.614Z,7.74
2019-03-10T11:18:09.602Z,7.72
2019-03-10T11:20:40.951Z,7.87
2019-03-10T11:23:17.969Z,8.03
2019-03-10T11:25:49.224Z,8.09
2019-03-10T11:28:24.264Z,8.17
2019-03-10T11:31:14.376Z,8.29
2019-03-10T11:33:46.437Z,8.37
2019-03-10T11:36:20.314Z,8.48
2019-03-10T11:38:51.968Z,8.30
2019-03-10T11:41:33.382Z,8.49
2019-03-10T11:44:08.279Z,8.59
2019-03-10T11:46:39.687Z,8.79
2019-03-10T11:49:13.865Z,8.79
2019-03-10T11:52:01.223Z,8.96
2019-03-10T11:54:35.202Z,8.79
2019-03-10T11:57:09.458Z,8.66
2019-03-10T11:59:40.708Z,8.72
2019-03-10T12:02:21.142Z,8.89
2019-03-10T12:05:06.547Z,9.03
2019-03-10T12:07:53.946Z,9.28
2019-03-10T12:10:23.650Z,9.61
2019-03-10T12:12:53.256Z,9.87
2019-03-10T12:15:22.920Z,10.10
2019-03-10T12:17:52.692Z,10.27
2019-03-10T12:20:22.335Z,10.50
2019-03-10T12:22:52.194Z,10.56
2019-03-10T12:25:21.812Z,10.32
2019-03-10T12:27:51.615Z,10.53
2019-03-10T12:30:21.345Z,10.78
2019-03-10T12:32:50.978Z,11.00
2019-03-10T12:35:21.070Z,10.70
2019-03-10T12:37:50.721Z,10.40
2019-03-10T12:40:20.355Z,10.55
2019-03-10T12:42:49.995Z,10.26
2019-03-10T12:45:19.674Z,10.18
2019-03-10T12:47:49.343Z,9.87
2019-03-10T12:50:19.073Z,9.72
2019-03-10T12:52:48.756Z,9.55
2019-03-10T12:55:18.370Z,9.88
2019-03-10T12:57:48.000Z,10.65
2019-03-10T13:00:18.306Z,10.57
2019-03-10T13:02:48.925Z,10.84
2019-03-10T13:05:18.721Z,10.39
2019-03-10T13:07:48.393Z,9.96
2019-03-10T13:10:18.100Z,9.49
2019-03-10T13:12:47.721Z,9.38
2019-03-10T13:15:17.381Z,9.13
2019-03-10T13:17:47.094Z,8.80
2019-03-10T13:20:27.520Z,8.52
2019-03-10T13:22:48.286Z,8.33
2019-03-10T13:25:19.187Z,8.37
2019-03-10T13:27:49.876Z,8.59
2019-03-10T13:30:19.686Z,8.60
2019-03-10T13:32:52.515Z,8.61
2019-03-10T13:35:23.379Z,8.66
2019-03-10T13:37:53.078Z,8.62
2019-03-10T13:40:22.712Z,8.46
2019-03-10T13:42:55.371Z,8.30
2019-03-10T13:45:25.030Z,8.53
2019-03-10T13:47:54.710Z,8.55
2019-03-10T13:50:24.304Z,9.12
2019-03-10T13:52:55.151Z,9.37
2019-03-10T13:55:24.774Z,9.63
2019-03-10T13:57:55.275Z,11.15
2019-03-10T14:00:25.862Z,10.89
2019-03-10T14:02:55.491Z,10.07
2019-03-10T14:05:25.105Z,9.38
2019-03-10T14:07:54.861Z,8.84
2019-03-10T14:10:24.510Z,8.63
2019-03-10T14:12:54.251Z,8.41
2019-03-10T14:15:24.153Z,8.13
2019-03-10T14:17:53.795Z,7.88
2019-03-10T14:20:23.423Z,8.12
2019-03-10T14:22:53.075Z,7.84
2019-03-10T14:25:22.715Z,7.53
2019-03-10T14:27:52.473Z,7.41
2019-03-10T14:30:22.270Z,7.32
2019-03-10T14:32:52.143Z,7.24
2019-03-10T14:35:22.259Z,7.05
2019-03-10T14:37:51.929Z,6.93
2019-03-10T14:40:23.450Z,6.87
2019-03-10T14:42:53.047Z,6.87
2019-03-10T14:45:22.855Z,6.86
2019-03-10T14:47:53.943Z,6.77
2019-03-10T14:50:23.944Z,6.78
2019-03-10T14:52:54.655Z,6.75
2019-03-10T14:55:27.257Z,6.73
2019-03-10T14:57:56.877Z,6.68
2019-03-10T15:00:30.343Z,6.68
2019-03-10T15:03:00.318Z,6.97
2019-03-10T15:05:29.943Z,10.50
2019-03-10T15:07:59.879Z,11.41
2019-03-10T15:10:29.668Z,10.25
2019-03-10T15:12:59.294Z,9.36
2019-03-10T15:15:29.259Z,9.36
2019-03-10T15:17:59.204Z,9.15
2019-03-10T15:20:29.141Z,9.01
2019-03-10T15:22:58.889Z,8.96
2019-03-10T15:25:28.743Z,8.71
2019-03-10T15:27:58.662Z,8.54
2019-03-10T15:30:29.481Z,8.38
2019-03-10T15:33:00.427Z,8.14
2019-03-10T15:35:30.439Z,7.88
2019-03-10T15:38:00.309Z,7.86
2019-03-10T15:40:30.127Z,7.88
2019-03-10T15:43:00.004Z,7.80
2019-03-10T15:45:33.740Z,7.61
2019-03-10T15:48:05.451Z,7.40
2019-03-10T15:50:37.519Z,7.19
2019-03-10T15:53:07.289Z,6.98
2019-03-10T15:55:37.646Z,6.83
2019-03-10T15:58:07.380Z,6.70
2019-03-10T16:00:37.046Z,6.58
2019-03-10T16:03:07.930Z,6.46
2019-03-10T16:05:37.738Z,6.35
2019-03-10T16:08:07.437Z,6.26
2019-03-10T16:10:38.157Z,6.24
2019-03-10T16:13:07.777Z,6.29
2019-03-10T16:15:37.433Z,6.27
2019-03-10T16:18:07.943Z,6.24
2019-03-10T16:20:37.675Z,6.23
2019-03-10T16:23:07.379Z,6.18
2019-03-10T16:25:37.468Z,6.14
2019-03-10T16:28:07.098Z,6.09
2019-03-10T16:30:36.767Z,6.04
2019-03-10T16:33:06.455Z,5.97
2019-03-10T16:35:36.329Z,5.91
2019-03-10T16:38:06.228Z,5.86
2019-03-10T16:40:36.435Z,5.77
2019-03-10T16:43:06.075Z,5.72
2019-03-10T16:45:35.846Z,5.67
2019-03-10T16:48:05.721Z,5.60
2019-03-10T16:50:37.122Z,5.54
2019-03-10T16:53:07.064Z,5.48
2019-03-10T16:55:37.604Z,5.44
2019-03-10T16:58:07.304Z,5.41
2019-03-10T17:00:37.026Z,5.38
2019-03-10T17:03:07.633Z,5.36
2019-03-10T17:05:38.438Z,5.36
2019-03-10T17:08:08.453Z,5.31
2019-03-10T17:10:38.139Z,5.25
2019-03-10T17:13:08.710Z,5.17
2019-03-10T17:15:39.039Z,5.13
2019-03-10T17:18:08.655Z,5.07
2019-03-10T17:20:38.283Z,5.01
2019-03-10T17:23:09.194Z,4.94
2019-03-10T17:25:39.159Z,4.86
2019-03-10T17:28:08.856Z,4.78
2019-03-10T17:30:38.527Z,4.71
2019-03-10T17:33:09.156Z,4.65
2019-03-10T17:35:39.622Z,4.63
2019-03-10T17:38:10.079Z,4.60
2019-03-10T17:40:44.148Z,4.59
2019-03-10T17:43:14.076Z,4.57
2019-03-10T17:45:46.786Z,4.54
2019-03-10T17:48:16.981Z,4.58
2019-03-10T17:50:48.721Z,4.64
2019-03-10T17:53:20.225Z,4.57
2019-03-10T17:55:50.102Z,4.47
2019-03-10T17:58:21.332Z,4.40
2019-03-10T18:00:52.624Z,4.31
2019-03-10T18:03:26.932Z,4.23
2019-03-10T18:05:56.671Z,4.19
2019-03-10T18:08:27.307Z,4.13
2019-03-10T18:11:08.021Z,4.10
2019-03-10T18:13:42.466Z,4.05
2019-03-10T18:16:12.660Z,4.00
2019-03-10T18:18:42.577Z,3.96
2019-03-10T18:21:13.206Z,3.95
2019-03-10T18:23:43.769Z,3.89
2019-03-10T18:26:13.393Z,3.85
2019-03-10T18:28:43.124Z,3.82
2019-03-10T18:31:12.955Z,3.75
2019-03-10T18:33:47.359Z,3.71
2019-03-10T18:36:17.866Z,3.67
2019-03-10T18:38:47.559Z,3.64
2019-03-10T18:41:20.364Z,3.60
2019-03-10T18:43:50.126Z,3.58
2019-03-10T18:46:19.751Z,3.57
2019-03-10T18:48:54.167Z,3.59
2019-03-10T18:51:25.501Z,3.65
2019-03-10T18:53:55.464Z,3.73
2019-03-10T18:56:26.817Z,3.87
2019-03-10T18:58:58.927Z,3.94
2019-03-10T19:01:32.212Z,4.01
2019-03-10T19:04:10.635Z,4.06
2019-03-10T19:06:41.828Z,4.07
2019-03-10T19:09:11.738Z,4.06
2019-03-10T19:11:43.751Z,4.01
2019-03-10T19:14:15.020Z,3.97
2019-03-10T19:16:46.146Z,3.95
2019-03-10T19:19:18.534Z,3.91
2019-03-10T19:21:48.000Z,3.90
2019-03-10T19:24:20.592Z,3.90
2019-03-10T19:26:59.858Z,3.87
2019-03-10T19:29:30.423Z,3.87
2019-03-10T19:32:06.818Z,3.85
2019-03-10T19:34:36.792Z,3.83
2019-03-10T19:37:09.519Z,3.80
2019-03-10T19:39:38.972Z,3.80
2019-03-10T19:42:10.553Z,3.77
2019-03-10T19:44:42.366Z,3.76
2019-03-10T19:47:13.847Z,3.72
2019-03-10T19:49:44.544Z,3.72
2019-03-10T19:52:18.974Z,3.72
2019-03-10T19:54:51.395Z,3.71
2019-03-10T19:57:21.718Z,3.74
2019-03-10T19:59:51.389Z,3.80
2019-03-10T20:02:21.017Z,3.97
2019-03-10T20:04:50.634Z,4.03
2019-03-10T20:07:20.322Z,4.04
2019-03-10T20:09:49.962Z,4.04
2019-03-10T20:12:19.896Z,4.05
2019-03-10T20:14:50.663Z,4.03
2019-03-10T20:17:20.658Z,4.02
2019-03-10T20:19:58.072Z,4.00
2019-03-10T20:22:27.928Z,4.00
2019-03-10T20:24:57.718Z,4.02
2019-03-10T20:27:30.817Z,4.01
2019-03-10T20:30:00.573Z,4.02
2019-03-10T20:32:30.204Z,4.04
2019-03-10T20:34:59.821Z,4.08
2019-03-10T20:37:29.619Z,4.12
2019-03-10T20:39:59.628Z,4.12
2019-03-10T20:42:29.739Z,4.12
2019-03-10T20:44:59.400Z,4.15
2019-03-10T20:47:29.026Z,4.17
2019-03-10T20:50:00.371Z,4.14
2019-03-10T20:52:30.006Z,4.14
2019-03-10T20:54:59.641Z,4.12
2019-03-10T20:57:30.482Z,4.12
2019-03-10T21:00:01.305Z,4.13
2019-03-10T21:02:31.343Z,4.16
2019-03-10T21:05:00.972Z,4.21
2019-03-10T21:07:30.692Z,4.24
2019-03-10T21:10:01.273Z,4.25
2019-03-10T21:12:39.775Z,4.24
2019-03-10T21:15:04.242Z,4.20
2019-03-10T21:17:35.099Z,4.19
2019-03-10T21:20:07.846Z,4.26
2019-03-10T21:22:37.775Z,4.33
2019-03-10T21:25:15.773Z,4.32
2019-03-10T21:27:45.784Z,4.34
2019-03-10T21:30:23.844Z,4.37
2019-03-10T21:32:53.511Z,4.40
2019-03-10T21:35:23.272Z,4.41
2019-03-10T21:37:52.962Z,4.37
2019-03-10T21:40:34.872Z,4.35
2019-03-10T21:43:04.647Z,4.33
2019-03-10T21:45:34.529Z,4.31
2019-03-10T21:48:04.642Z,4.31
2019-03-10T21:50:34.613Z,4.34
2019-03-10T21:53:04.385Z,4.37
2019-03-10T21:55:34.171Z,4.41
2019-03-10T21:58:03.814Z,4.39
2019-03-10T22:00:33.495Z,4.38
2019-03-10T22:03:03.241Z,4.50
2019-03-10T22:05:33.222Z,4.48
2019-03-10T22:08:02.965Z,4.49
2019-03-10T22:10:33.689Z,4.47
2019-03-10T22:13:03.383Z,4.45
2019-03-10T22:15:41.570Z,4.48
2019-03-10T22:18:08.050Z,4.45
2019-03-10T22:20:39.375Z,4.37
2019-03-10T22:23:10.055Z,4.33
2019-03-10T22:25:40.866Z,4.29
2019-03-10T22:28:10.486Z,4.28
2019-03-10T22:30:41.250Z,4.29
2019-03-10T22:33:11.302Z,4.37
2019-03-10T22:35:40.910Z,4.44
2019-03-10T22:38:12.037Z,4.43
2019-03-10T22:40:42.747Z,4.42
2019-03-10T22:43:13.239Z,4.44
2019-03-10T22:45:42.967Z,4.44
2019-03-10T22:48:12.744Z,4.47
2019-03-10T22:50:43.117Z,4.50
2019-03-10T22:53:12.728Z,4.57
2019-03-10T22:55:42.644Z,4.62
2019-03-10T22:58:13.732Z,4.65
2019-03-10T23:00:51.289Z,4.68
2019-03-10T23:03:21.174Z,4.66
2019-03-10T23:05:50.769Z,4.64
2019-03-10T23:08:20.429Z,4.59
2019-03-10T23:10:50.055Z,4.52
2019-03-10T23:13:19.660Z,4.49
2019-03-10T23:15:49.337Z,4.43
2019-03-10T23:18:19.427Z,4.36
2019-03-10T23:20:49.031Z,4.35
2019-03-10T23:23:18.667Z,4.36
2019-03-10T23:25:48.543Z,4.37
2019-03-10T23:28:18.415Z,4.34
2019-03-10T23:30:48.670Z,4.26
2019-03-10T23:33:18.269Z,4.17
2019-03-10T23:35:48.054Z,4.12
2019-03-10T23:38:17.697Z,4.12
2019-03-10T23:40:47.289Z,4.16
2019-03-10T23:43:17.440Z,4.21
2019-03-10T23:45:47.076Z,4.24
2019-03-10T23:48:18.557Z,4.23
2019-03-10T23:50:48.432Z,4.15
2019-03-10T23:53:18.696Z,4.07
2019-03-10T23:55:48.317Z,4.04
2019-03-10T23:58:18.284Z,4.06
